createdAt,value
2023-04-11T00:00:59.862Z,87.78
2023-04-11T00:03:28.969Z,88.41
2023-04-11T00:05:57.355Z,87.61
2023-04-11T00:08:27.238Z,87.86
2023-04-11T00:10:55.371Z,86.37
2023-04-11T00:13:24.200Z,86.33
2023-04-11T00:15:55.932Z,86.44
2023-04-11T00:18:25.921Z,86.82
2023-04-11T00:20:54.135Z,86.42
2023-04-11T00:23:22.264Z,87.56
2023-04-11T00:25:51.883Z,88.44
2023-04-11T00:28:20.057Z,87.83
2023-04-11T00:30:48.227Z,87.92
2023-04-11T00:33:16.731Z,88.84
2023-04-11T00:35:45.888Z,89.05
2023-04-11T00:38:14.104Z,89.01
2023-04-11T00:40:42.348Z,89.51
2023-04-11T00:43:11.921Z,89.21
2023-04-11T00:45:40.155Z,88.32
2023-04-11T00:48:08.559Z,88.67
2023-04-11T00:50:41.369Z,88.93
2023-04-11T00:53:11.075Z,89.47
2023-04-11T00:55:39.314Z,90.71
2023-04-11T00:58:09.090Z,89.86
2023-04-11T01:00:38.930Z,90.30
2023-04-11T01:03:08.567Z,91.36
2023-04-11T01:05:37.724Z,90.50
2023-04-11T01:08:06.419Z,90.49
2023-04-11T01:10:34.851Z,90.13
2023-04-11T01:13:03.441Z,90.86
2023-04-11T01:15:31.964Z,90.95
2023-04-11T01:18:02.117Z,90.29
2023-04-11T01:20:31.918Z,89.97
2023-04-11T01:23:02.867Z,90.21
2023-04-11T01:25:32.471Z,90.42
2023-04-11T01:28:00.739Z,90.92
2023-04-11T01:30:28.944Z,92.06
2023-04-11T01:32:57.232Z,93.26
2023-04-11T01:35:25.663Z,93.16
2023-04-11T01:37:54.116Z,93.92
2023-04-11T01:40:23.891Z,92.52
2023-04-11T01:42:54.155Z,91.99
2023-04-11T01:45:23.317Z,92.79
2023-04-11T01:47:53.007Z,93.31
2023-04-11T01:50:21.287Z,92.58
2023-04-11T01:52:49.774Z,92.82
2023-04-11T01:55:18.329Z,92.57
2023-04-11T01:57:46.493Z,92.67
2023-04-11T02:00:17.294Z,93.54
2023-04-11T02:02:45.596Z,93.40
2023-04-11T02:05:14.001Z,93.74
2023-04-11T02:07:42.266Z,93.48
2023-04-11T02:10:10.883Z,93.13
2023-04-11T02:12:39.051Z,94.50
2023-04-11T02:15:08.849Z,94.34
2023-04-11T02:17:45.179Z,94.69
2023-04-11T02:20:14.399Z,94.98
2023-04-11T02:22:42.827Z,95.19
2023-04-11T02:25:11.207Z,94.73
2023-04-11T02:27:39.487Z,93.89
2023-04-11T02:30:08.825Z,93.45
2023-04-11T02:32:39.369Z,93.21
2023-04-11T02:35:08.257Z,92.99
2023-04-11T02:37:36.537Z,93.58
2023-04-11T02:40:05.470Z,94.36
2023-04-11T02:42:33.622Z,94.33
2023-04-11T02:45:01.923Z,95.22
2023-04-11T02:47:30.131Z,96.07
2023-04-11T02:49:59.855Z,96.94
2023-04-11T02:52:28.028Z,96.60
2023-04-11T02:54:56.115Z,97.68
2023-04-11T02:57:24.282Z,97.01
2023-04-11T02:59:52.635Z,97.39
2023-04-11T03:02:21.189Z,97.09
2023-04-11T03:04:49.424Z,97.71
2023-04-11T03:07:19.015Z,97.58
2023-04-11T03:09:47.139Z,98.23
2023-04-11T03:12:16.191Z,97.91
2023-04-11T03:14:44.299Z,97.21
2023-04-11T03:17:12.394Z,97.65
2023-04-11T03:19:40.628Z,96.35
2023-04-11T03:22:08.811Z,97.62
2023-04-11T03:24:39.435Z,97.31
2023-04-11T03:27:07.725Z,96.17
2023-04-11T03:29:35.949Z,95.30
2023-04-11T03:32:04.186Z,95.95
2023-04-11T03:34:32.327Z,97.23
2023-04-11T03:37:00.551Z,98.27
2023-04-11T03:39:28.728Z,98.85
2023-04-11T03:41:58.348Z,98.95
2023-04-11T03:44:26.600Z,98.80
2023-04-11T03:46:54.825Z,98.49
2023-04-11T03:49:23.003Z,98.89
2023-04-11T03:51:51.242Z,98.60
2023-04-11T03:54:19.428Z,97.84
2023-04-11T03:56:47.782Z,99.08
2023-04-11T03:59:17.357Z,100.00
2023-04-11T04:01:45.522Z,100.00
2023-04-11T04:04:13.842Z,100.00
2023-04-11T04:06:42.005Z,99.20
2023-04-11T04:09:10.202Z,98.48
2023-04-11T04:11:38.379Z,98.96
2023-04-11T04:14:06.477Z,99.95
2023-04-11T04:16:36.077Z,100.00
2023-04-11T04:19:04.241Z,100.00
2023-04-11T04:21:33.016Z,100.00
2023-04-11T04:24:03.842Z,100.00
2023-04-11T04:26:32.271Z,100.00
2023-04-11T04:29:04.665Z,100.00
2023-04-11T04:31:34.770Z,100.00
2023-04-11T04:34:08.833Z,100.00
2023-04-11T04:36:46.467Z,99.14
2023-04-11T04:39:18.128Z,98.48
2023-04-11T04:41:48.742Z,98.78
2023-04-11T04:44:17.506Z,100.00
2023-04-11T04:46:45.935Z,100.00
2023-04-11T04:49:15.767Z,100.00
2023-04-11T04:51:44.345Z,100.00
2023-04-11T04:54:12.697Z,100.00
2023-04-11T04:56:41.613Z,100.00
2023-04-11T04:59:14.671Z,100.00
2023-04-11T05:01:43.138Z,100.00
2023-04-11T05:04:11.635Z,100.00
2023-04-11T05:06:41.441Z,100.00
2023-04-11T05:09:10.071Z,100.00
2023-04-11T05:11:38.286Z,100.00
2023-04-11T05:14:06.701Z,100.00
2023-04-11T05:16:35.029Z,100.00
2023-04-11T05:19:03.658Z,100.00
2023-04-11T05:21:31.790Z,100.00
2023-04-11T05:24:01.494Z,99.49
2023-04-11T05:26:30.037Z,99.49
2023-04-11T05:28:58.277Z,98.93
2023-04-11T05:31:27.017Z,99.39
2023-04-11T05:33:55.309Z,99.06
2023-04-11T05:36:23.937Z,99.17
2023-04-11T05:38:52.320Z,98.61
2023-04-11T05:41:21.961Z,97.50
2023-04-11T05:43:50.211Z,97.41
2023-04-11T05:46:19.168Z,97.02
2023-04-11T05:48:47.409Z,96.73
2023-04-11T05:51:15.658Z,95.83
2023-04-11T05:53:44.157Z,94.14
2023-04-11T05:56:12.997Z,95.85
2023-04-11T05:58:44.453Z,95.51
2023-04-11T06:01:18.391Z,95.53
2023-04-11T06:03:47.228Z,93.95
2023-04-11T06:06:15.910Z,90.86
2023-04-11T06:08:44.320Z,89.50
2023-04-11T06:11:12.500Z,89.01
2023-04-11T06:13:42.278Z,89.88
2023-04-11T06:16:11.051Z,91.42
2023-04-11T06:18:39.247Z,92.15
2023-04-11T06:21:07.633Z,91.90
2023-04-11T06:23:35.901Z,90.26
2023-04-11T06:28:33.510Z,90.25
2023-04-11T06:31:03.496Z,90.38
2023-04-11T06:33:31.784Z,89.36
2023-04-11T06:35:59.969Z,88.93
2023-04-11T06:38:28.289Z,89.44
2023-04-11T06:40:56.552Z,89.43
2023-04-11T06:43:24.868Z,89.68
2023-04-11T06:45:53.147Z,88.51
2023-04-11T06:48:22.769Z,87.64
2023-04-11T06:50:51.104Z,87.92
2023-04-11T06:53:19.293Z,88.00
2023-04-11T06:55:49.945Z,88.84
2023-04-11T06:58:18.345Z,88.84
2023-04-11T07:00:46.591Z,89.41
2023-04-11T07:03:15.160Z,90.24
2023-04-11T07:05:44.859Z,90.81
2023-04-11T07:08:13.059Z,88.73
2023-04-11T07:10:41.356Z,88.26
2023-04-11T07:13:09.437Z,88.14
2023-04-11T07:15:37.818Z,87.73
2023-04-11T07:18:06.154Z,86.61
2023-04-11T07:20:35.415Z,84.40
2023-04-11T07:23:05.044Z,82.18
2023-04-11T07:25:33.616Z,83.12
2023-04-11T07:28:02.047Z,82.28
2023-04-11T07:30:30.245Z,81.75
2023-04-11T07:32:58.487Z,78.37
2023-04-11T07:35:26.714Z,77.78
2023-04-11T07:37:54.886Z,77.97
2023-04-11T07:40:24.591Z,77.49
2023-04-11T07:42:52.778Z,77.18
2023-04-11T07:45:21.403Z,76.46
2023-04-11T07:47:49.665Z,77.21
2023-04-11T07:50:17.874Z,76.69
2023-04-11T07:52:45.986Z,76.83
2023-04-11T07:55:14.221Z,77.40
2023-04-11T07:57:43.899Z,76.80
2023-04-11T08:00:20.952Z,76.65
2023-04-11T08:02:49.337Z,76.60
2023-04-11T08:05:17.631Z,75.35
2023-04-11T08:07:45.795Z,75.90
2023-04-11T08:10:13.983Z,74.86
2023-04-11T08:12:43.700Z,75.36
2023-04-11T08:15:12.511Z,75.54
2023-04-11T08:17:41.250Z,74.73
2023-04-11T08:20:12.207Z,74.92
2023-04-11T08:22:41.785Z,75.05
2023-04-11T08:25:10.990Z,74.09
2023-04-11T08:27:39.317Z,74.91
2023-04-11T08:30:10.147Z,74.28
2023-04-11T08:32:38.547Z,74.47
2023-04-11T08:35:07.400Z,73.91
2023-04-11T08:37:35.572Z,74.47
2023-04-11T08:40:07.069Z,75.29
2023-04-11T08:42:36.369Z,74.93
2023-04-11T08:45:08.784Z,74.49
2023-04-11T08:47:38.540Z,74.61
2023-04-11T08:50:07.782Z,75.04
2023-04-11T08:52:36.985Z,75.56
2023-04-11T08:55:05.464Z,75.73
2023-04-11T08:57:35.085Z,73.95
2023-04-11T09:00:11.287Z,74.29
2023-04-11T09:02:56.626Z,74.63
2023-04-11T09:05:31.997Z,72.70
2023-04-11T09:08:01.778Z,72.03
2023-04-11T09:10:29.949Z,72.46
2023-04-11T09:12:58.450Z,73.21
2023-04-11T09:15:28.664Z,72.95
2023-04-11T09:18:00.616Z,72.66
2023-04-11T09:20:30.644Z,73.37
2023-04-11T09:23:00.074Z,73.18
2023-04-11T09:25:28.760Z,73.54
2023-04-11T09:28:09.906Z,71.92
2023-04-11T09:30:38.129Z,72.89
2023-04-11T09:33:25.726Z,74.19
2023-04-11T09:35:55.142Z,75.59
2023-04-11T09:38:31.243Z,74.23
2023-04-11T09:40:59.946Z,72.14
2023-04-11T09:43:28.196Z,71.78
2023-04-11T09:46:18.469Z,71.03
2023-04-11T09:48:48.987Z,71.39
2023-04-11T09:51:34.348Z,72.98
2023-04-11T09:54:04.890Z,74.03
2023-04-11T09:56:35.184Z,74.33
2023-04-11T09:59:04.395Z,75.83
2023-04-11T10:01:32.725Z,75.95
2023-04-11T10:04:02.315Z,75.62
2023-04-11T10:06:35.001Z,74.25
2023-04-11T10:09:08.656Z,72.36
2023-04-11T10:11:37.159Z,73.00
2023-04-11T10:14:05.453Z,74.37
2023-04-11T10:16:34.661Z,75.46
2023-04-11T10:19:29.146Z,76.37
2023-04-11T10:21:57.627Z,73.56
2023-04-11T10:24:26.835Z,72.41
2023-04-11T10:26:56.304Z,74.09
2023-04-11T10:29:53.189Z,74.96
2023-04-11T10:32:23.774Z,73.37
2023-04-11T10:35:31.274Z,71.10
2023-04-11T10:38:00.851Z,69.64
2023-04-11T10:40:29.094Z,68.04
2023-04-11T10:42:57.590Z,68.30
2023-04-11T10:45:27.245Z,66.87
2023-04-11T10:48:16.308Z,63.98
2023-04-11T10:50:45.403Z,66.80
2023-04-11T10:53:38.849Z,67.74
2023-04-11T10:56:07.606Z,65.12
2023-04-11T10:58:38.875Z,64.38
2023-04-11T11:01:31.392Z,66.17
2023-04-11T11:04:06.322Z,65.86
2023-04-11T11:06:46.097Z,65.74
2023-04-11T11:09:24.577Z,66.59
2023-04-11T11:12:07.923Z,65.43
2023-04-11T11:14:36.633Z,62.95
2023-04-11T11:17:05.421Z,63.54
2023-04-11T11:19:33.797Z,63.90
2023-04-11T11:22:04.171Z,64.18
2023-04-11T11:24:34.057Z,63.46
2023-04-11T11:27:02.213Z,61.05
2023-04-11T11:29:37.044Z,60.79
2023-04-11T11:32:06.018Z,60.90
2023-04-11T11:34:36.214Z,61.75
2023-04-11T11:37:05.532Z,61.86
2023-04-11T11:39:36.112Z,61.78
2023-04-11T11:42:04.674Z,62.13
2023-04-11T11:44:32.983Z,60.74
2023-04-11T11:47:05.546Z,61.55
2023-04-11T11:49:47.050Z,59.55
2023-04-11T11:52:33.083Z,59.76
2023-04-11T11:55:06.864Z,61.12
2023-04-11T11:57:36.757Z,60.95
2023-04-11T12:00:10.561Z,61.82
2023-04-11T12:02:42.438Z,62.68
2023-04-11T12:05:13.210Z,61.56
2023-04-11T12:07:41.826Z,59.81
2023-04-11T12:10:16.616Z,58.23
2023-04-11T12:12:53.142Z,59.90
2023-04-11T12:15:23.867Z,59.10
2023-04-11T12:17:53.861Z,59.00
2023-04-11T12:20:25.446Z,58.71
2023-04-11T12:22:54.817Z,57.54
2023-04-11T12:25:25.814Z,57.48
2023-04-11T12:27:54.143Z,54.40
2023-04-11T12:30:22.396Z,54.80
2023-04-11T12:32:50.713Z,55.77
2023-04-11T12:35:19.064Z,54.67
2023-04-11T12:37:47.442Z,54.13
2023-04-11T12:40:15.727Z,55.00
2023-04-11T12:42:56.372Z,55.54
2023-04-11T12:45:25.554Z,55.15
2023-04-11T12:47:54.938Z,54.35
2023-04-11T12:50:24.501Z,53.46
2023-04-11T12:52:55.585Z,53.29
2023-04-11T12:55:24.721Z,52.01
2023-04-11T12:57:54.404Z,52.43
2023-04-11T13:00:22.962Z,52.35
2023-04-11T13:02:51.382Z,51.90
2023-04-11T13:05:19.955Z,53.02
2023-04-11T13:07:48.429Z,53.52
2023-04-11T13:10:17.362Z,52.37
2023-04-11T13:12:46.669Z,52.99
2023-04-11T13:15:17.792Z,50.95
2023-04-11T13:17:47.349Z,52.40
2023-04-11T13:20:15.558Z,50.29
2023-04-11T13:22:44.722Z,49.70
2023-04-11T13:25:13.356Z,50.18
2023-04-11T13:27:42.675Z,50.52
2023-04-11T13:30:12.004Z,52.28
2023-04-11T13:32:41.860Z,51.90
2023-04-11T13:35:10.523Z,52.31
2023-04-11T13:37:38.631Z,52.78
2023-04-11T13:40:10.924Z,49.43
2023-04-11T13:42:39.094Z,47.14
2023-04-11T13:45:08.144Z,45.79
2023-04-11T13:47:38.378Z,45.16
2023-04-11T13:50:10.363Z,45.65
2023-04-11T13:52:38.793Z,45.39
2023-04-11T13:55:07.847Z,45.97
2023-04-11T13:57:36.190Z,48.90
2023-04-11T14:00:10.272Z,49.23
2023-04-11T14:02:38.780Z,49.45
2023-04-11T14:05:10.254Z,48.21
2023-04-11T14:07:38.399Z,49.29
2023-04-11T14:10:07.359Z,50.25
2023-04-11T14:12:35.543Z,49.20
2023-04-11T14:15:04.819Z,48.94
2023-04-11T14:17:33.080Z,48.77
2023-04-11T14:20:01.426Z,47.91
2023-04-11T14:22:30.973Z,48.88
2023-04-11T14:24:59.245Z,47.94
2023-04-11T14:27:27.483Z,47.32
2023-04-11T14:29:55.642Z,47.97
2023-04-11T14:32:23.857Z,47.59
2023-04-11T14:34:53.858Z,47.49
2023-04-11T14:37:22.071Z,47.05
2023-04-11T14:39:51.660Z,47.32
2023-04-11T14:42:20.076Z,47.21
2023-04-11T14:44:50.308Z,47.71
2023-04-11T14:47:18.509Z,47.30
2023-04-11T14:49:46.867Z,46.94
2023-04-11T14:52:14.984Z,46.33
2023-04-11T14:54:44.018Z,46.67
2023-04-11T14:57:13.639Z,47.25
2023-04-11T14:59:43.305Z,48.23
2023-04-11T15:02:12.127Z,48.95
2023-04-11T15:04:40.426Z,49.19
2023-04-11T15:07:08.878Z,48.67
2023-04-11T15:09:37.036Z,47.94
2023-04-11T15:12:05.574Z,47.75
2023-04-11T15:14:35.150Z,48.08
2023-04-11T15:17:03.320Z,48.94
2023-04-11T15:19:31.510Z,49.78
2023-04-11T15:21:59.606Z,49.78
2023-04-11T15:24:27.787Z,50.24
2023-04-11T15:26:56.902Z,50.49
2023-04-11T15:29:25.620Z,51.70
2023-04-11T15:31:55.212Z,52.14
2023-04-11T15:34:23.500Z,52.80
2023-04-11T15:36:51.613Z,53.19
2023-04-11T15:39:19.869Z,53.53
2023-04-11T15:41:48.642Z,54.19
2023-04-11T15:44:16.748Z,54.80
2023-04-11T15:46:46.951Z,55.40
2023-04-11T15:49:19.425Z,56.04
2023-04-11T15:51:47.738Z,55.88
2023-04-11T15:54:15.928Z,56.70
2023-04-11T15:56:44.150Z,57.18
2023-04-11T15:59:13.116Z,57.92
2023-04-11T16:01:41.713Z,58.48
2023-04-11T16:04:11.428Z,58.90
2023-04-11T16:06:41.199Z,59.34
2023-04-11T16:09:09.260Z,60.26
2023-04-11T16:11:40.047Z,62.01
2023-04-11T16:14:08.318Z,63.54
2023-04-11T16:16:36.498Z,66.07
2023-04-11T16:19:04.692Z,65.28
2023-04-11T16:21:32.796Z,65.22
2023-04-11T16:24:02.341Z,65.91
2023-04-11T16:26:30.623Z,66.13
2023-04-11T16:28:58.726Z,65.61
2023-04-11T16:31:27.291Z,62.78
2023-04-11T16:33:56.107Z,63.95
2023-04-11T16:36:24.936Z,63.74
2023-04-11T16:38:53.255Z,62.71
2023-04-11T16:41:22.871Z,62.38
2023-04-11T16:43:51.017Z,61.55
2023-04-11T16:46:19.451Z,61.41
2023-04-11T16:48:47.759Z,60.76
2023-04-11T16:51:18.466Z,60.13
2023-04-11T16:53:47.507Z,60.16
2023-04-11T16:56:15.650Z,59.33
2023-04-11T16:58:45.391Z,58.33
2023-04-11T17:01:13.961Z,59.31
2023-04-11T17:03:43.832Z,58.55
2023-04-11T17:06:16.050Z,57.53
2023-04-11T17:08:45.882Z,57.61
2023-04-11T17:11:14.354Z,57.18
2023-04-11T17:13:45.783Z,57.54
2023-04-11T17:16:14.179Z,61.92
2023-04-11T17:18:42.345Z,62.07
2023-04-11T17:21:10.805Z,63.53
2023-04-11T17:23:42.564Z,65.02
2023-04-11T17:26:11.389Z,67.52
2023-04-11T17:28:39.705Z,69.62
2023-04-11T17:31:14.057Z,70.54
2023-04-11T17:33:42.856Z,67.94
2023-04-11T17:36:12.735Z,62.81
2023-04-11T17:38:42.237Z,61.65
2023-04-11T17:41:15.035Z,63.41
2023-04-11T17:43:43.821Z,61.57
2023-04-11T17:46:13.859Z,64.61
2023-04-11T17:48:42.263Z,59.47
2023-04-11T17:51:10.530Z,63.63
2023-04-11T17:53:38.706Z,66.28
2023-04-11T17:56:07.833Z,66.43
2023-04-11T17:58:36.113Z,64.83
2023-04-11T18:01:05.057Z,66.94
2023-04-11T18:03:35.470Z,65.69
2023-04-11T18:06:03.972Z,67.66
2023-04-11T18:08:49.131Z,68.54
2023-04-11T18:11:17.686Z,68.10
2023-04-11T18:13:48.347Z,67.99
2023-04-11T18:16:18.277Z,67.41
2023-04-11T18:18:49.019Z,68.48
2023-04-11T18:21:17.671Z,69.83
2023-04-11T18:23:46.011Z,70.30
2023-04-11T18:26:14.155Z,69.09
2023-04-11T18:28:42.343Z,70.48
2023-04-11T18:31:11.182Z,71.35
2023-04-11T18:33:58.889Z,70.71
2023-04-11T18:36:28.896Z,69.88
2023-04-11T18:38:57.256Z,72.52
2023-04-11T18:41:26.283Z,72.05
2023-04-11T18:43:54.507Z,72.91
2023-04-11T18:46:22.740Z,74.46
2023-04-11T18:48:50.982Z,75.90
2023-04-11T18:51:20.575Z,76.03
2023-04-11T18:53:50.178Z,75.99
2023-04-11T18:56:18.395Z,75.88
2023-04-11T18:58:49.302Z,75.64
2023-04-11T19:01:19.355Z,73.77
2023-04-11T19:04:15.529Z,69.89
2023-04-11T19:06:53.303Z,70.12
2023-04-11T19:09:23.420Z,72.07
2023-04-11T19:11:52.997Z,72.68
2023-04-11T19:14:21.620Z,72.15
2023-04-11T19:24:34.532Z,71.71
2023-04-11T19:27:31.130Z,71.93
2023-04-11T19:30:02.477Z,72.54
2023-04-11T19:32:32.244Z,72.10
2023-04-11T19:35:02.320Z,69.11
2023-04-11T19:37:30.943Z,64.81
2023-04-11T19:40:01.681Z,66.38
2023-04-11T19:42:33.942Z,67.48
2023-04-11T19:45:05.468Z,63.28
2023-04-11T19:47:35.232Z,59.90
2023-04-11T19:50:04.137Z,57.16
2023-04-11T19:53:40.176Z,53.09
2023-04-11T19:56:26.398Z,46.59
2023-04-11T19:58:55.136Z,45.23
2023-04-11T20:01:23.833Z,53.44
2023-04-11T20:03:53.806Z,47.98
2023-04-11T20:06:23.019Z,48.28
2023-04-11T20:08:51.930Z,45.69
2023-04-11T20:11:24.586Z,41.93
2023-04-11T20:13:53.919Z,41.31
2023-04-11T20:16:26.334Z,40.88
2023-04-11T20:18:55.231Z,40.87
2023-04-11T20:21:23.886Z,44.58
2023-04-11T20:23:53.184Z,43.61
2023-04-11T20:26:25.047Z,43.17
2023-04-11T20:28:53.430Z,43.81
2023-04-11T20:31:22.100Z,42.72
2023-04-11T20:33:51.024Z,42.93
2023-04-11T20:36:20.379Z,43.04
2023-04-11T20:38:48.836Z,42.98
2023-04-11T20:41:19.563Z,44.00
2023-04-11T20:43:49.470Z,44.57
2023-04-11T20:46:18.163Z,43.93
2023-04-11T20:48:46.644Z,43.21
2023-04-11T20:51:16.238Z,43.42
2023-04-11T20:53:44.914Z,42.92
2023-04-11T20:56:15.133Z,42.98
2023-04-11T20:58:46.248Z,42.97
2023-04-11T21:01:18.051Z,42.65
2023-04-11T21:03:47.249Z,42.65
2023-04-11T21:06:16.112Z,42.77
2023-04-11T21:08:44.494Z,43.62
2023-04-11T21:11:13.052Z,43.28
2023-04-11T21:13:43.266Z,42.81
2023-04-11T21:16:11.916Z,43.04
2023-04-11T21:18:41.943Z,43.61
2023-04-11T21:21:11.624Z,43.80
2023-04-11T21:23:40.562Z,44.66
2023-04-11T21:26:11.034Z,45.78
2023-04-11T21:28:39.551Z,46.12
2023-04-11T21:31:09.529Z,46.17
2023-04-11T21:33:38.245Z,46.64
2023-04-11T21:36:09.671Z,47.99
2023-04-11T21:38:38.185Z,49.75
2023-04-11T21:41:06.713Z,51.09
2023-04-11T21:43:35.656Z,51.34
2023-04-11T21:46:05.123Z,51.04
2023-04-11T21:48:37.401Z,52.58
2023-04-11T21:51:08.403Z,53.33
2023-04-11T21:53:37.204Z,54.23
2023-04-11T21:56:08.884Z,54.00
2023-04-11T21:58:40.144Z,54.84
2023-04-11T22:01:11.874Z,55.32
2023-04-11T22:03:42.166Z,56.95
2023-04-11T22:06:14.206Z,55.85
2023-04-11T22:08:50.457Z,57.15
2023-04-11T22:11:20.717Z,57.92
2023-04-11T22:13:51.548Z,57.85
2023-04-11T22:16:20.217Z,59.15
2023-04-11T22:18:49.424Z,59.40
2023-04-11T22:21:20.669Z,59.46
2023-04-11T22:23:54.679Z,59.20
2023-04-11T22:26:26.686Z,58.73
2023-04-11T22:28:55.888Z,59.02
2023-04-11T22:31:34.728Z,59.07
2023-04-11T22:34:03.781Z,59.22
2023-04-11T22:36:37.157Z,59.00
2023-04-11T22:39:07.167Z,58.92
2023-04-11T22:41:38.845Z,59.05
2023-04-11T22:44:07.596Z,59.04
2023-04-11T22:46:39.059Z,59.15
2023-04-11T22:49:10.021Z,59.38
2023-04-11T22:51:41.166Z,59.30
2023-04-11T22:54:09.884Z,59.16
2023-04-11T22:56:38.510Z,59.54
2023-04-11T22:59:07.044Z,59.87
2023-04-11T23:01:36.152Z,59.67
2023-04-11T23:04:05.065Z,59.27
2023-04-11T23:06:33.852Z,59.64
2023-04-11T23:09:04.350Z,59.43
2023-04-11T23:11:33.068Z,59.15
2023-04-11T23:14:02.536Z,59.80
2023-04-11T23:16:31.824Z,59.84
2023-04-11T23:19:01.617Z,59.90
2023-04-11T23:21:30.460Z,59.79
2023-04-11T23:23:59.902Z,59.62
2023-04-11T23:26:30.138Z,59.59
2023-04-11T23:28:58.838Z,60.23
2023-04-11T23:31:27.725Z,59.45
2023-04-11T23:33:57.144Z,60.15
2023-04-11T23:36:27.709Z,60.59
2023-04-11T23:38:56.942Z,60.93
2023-04-11T23:41:25.804Z,59.54
2023-04-11T23:43:56.379Z,60.46
2023-04-11T23:46:25.314Z,61.73
2023-04-11T23:48:54.756Z,60.63
2023-04-11T23:51:23.657Z,61.26
2023-04-11T23:53:52.569Z,61.18
2023-04-11T23:56:21.776Z,60.92
2023-04-11T23:58:50.787Z,61.27
